createdAt,value
2018-09-04T00:00:42.312Z,6.60
2018-09-04T00:03:09.717Z,6.50
2018-09-04T00:05:37.140Z,6.50
2018-09-04T00:08:04.742Z,6.50
2018-09-04T00:10:32.129Z,6.50
2018-09-04T00:12:59.566Z,6.50
2018-09-04T00:15:26.973Z,6.50
2018-09-04T00:17:54.432Z,6.60
2018-09-04T00:20:21.878Z,6.50
2018-09-04T00:22:49.280Z,6.50
2018-09-04T00:25:16.736Z,6.40
2018-09-04T00:27:44.137Z,6.30
2018-09-04T00:30:11.522Z,6.30
2018-09-04T00:32:38.983Z,6.40
2018-09-04T00:35:06.382Z,6.40
2018-09-04T00:37:33.819Z,6.40
2018-09-04T00:40:01.296Z,6.40
2018-09-04T00:42:28.694Z,6.40
2018-09-04T00:44:56.204Z,6.50
2018-09-04T00:47:23.589Z,6.40
2018-09-04T00:49:51.048Z,6.40
2018-09-04T00:52:18.526Z,6.40
2018-09-04T00:54:45.940Z,6.40
2018-09-04T00:57:13.389Z,6.40
2018-09-04T00:59:40.900Z,6.50
2018-09-04T01:02:08.486Z,6.50
2018-09-04T01:04:35.950Z,6.50
2018-09-04T01:07:03.467Z,6.40
2018-09-04T01:09:30.888Z,6.40
2018-09-04T01:11:58.303Z,6.50
2018-09-04T01:14:25.729Z,6.30
2018-09-04T01:16:53.141Z,6.30
2018-09-04T01:19:20.551Z,6.30
2018-09-04T01:21:47.977Z,6.30
2018-09-04T01:24:15.440Z,6.30
2018-09-04T01:26:42.848Z,6.30
2018-09-04T01:29:10.296Z,6.20
2018-09-04T01:31:37.692Z,6.10
2018-09-04T01:34:05.169Z,6.10
2018-09-04T01:36:32.930Z,6.10
2018-09-04T01:39:00.555Z,6.10
2018-09-04T01:41:27.964Z,6.10
2018-09-04T01:43:55.340Z,6.00
2018-09-04T01:46:22.802Z,6.00
2018-09-04T01:48:51.335Z,6.00
2018-09-04T01:51:18.763Z,5.90
2018-09-04T01:53:46.157Z,5.90
2018-09-04T01:56:13.564Z,5.90
2018-09-04T01:58:40.976Z,5.90
2018-09-04T02:01:08.363Z,6.00
2018-09-04T02:03:35.756Z,6.00
2018-09-04T02:06:03.142Z,6.00
2018-09-04T02:08:30.584Z,6.10
2018-09-04T02:10:58.014Z,6.10
2018-09-04T02:13:25.396Z,6.30
2018-09-04T02:15:52.941Z,6.20
2018-09-04T02:18:20.341Z,6.10
2018-09-04T02:20:47.725Z,6.10
2018-09-04T02:23:15.142Z,6.00
2018-09-04T02:25:42.515Z,6.00
2018-09-04T02:28:09.978Z,6.00
2018-09-04T02:30:37.389Z,5.90
2018-09-04T02:33:05.081Z,5.90
2018-09-04T02:35:32.518Z,5.80
2018-09-04T02:37:59.929Z,5.80
2018-09-04T02:40:27.321Z,5.80
2018-09-04T02:42:54.756Z,5.80
2018-09-04T02:45:22.138Z,5.70
2018-09-04T02:47:49.542Z,5.80
2018-09-04T02:50:16.989Z,5.90
2018-09-04T02:52:44.482Z,6.00
2018-09-04T02:55:11.942Z,6.00
2018-09-04T02:57:39.345Z,6.10
2018-09-04T03:00:08.184Z,6.10
2018-09-04T03:02:35.591Z,6.10
2018-09-04T03:05:03.038Z,6.10
2018-09-04T03:07:31.460Z,6.00
2018-09-04T03:09:58.850Z,6.00
2018-09-04T03:12:26.258Z,6.10
2018-09-04T03:14:53.705Z,6.20
2018-09-04T03:17:21.513Z,6.20
2018-09-04T03:19:48.954Z,6.10
2018-09-04T03:22:16.362Z,6.10
2018-09-04T03:24:43.777Z,6.10
2018-09-04T03:27:11.441Z,6.10
2018-09-04T03:29:38.829Z,6.10
2018-09-04T03:32:06.442Z,6.10
2018-09-04T03:34:33.877Z,6.10
2018-09-04T03:37:01.273Z,6.00
2018-09-04T03:39:28.636Z,6.10
2018-09-04T03:41:56.088Z,6.10
2018-09-04T03:44:23.702Z,6.00
2018-09-04T03:46:51.044Z,6.10
2018-09-04T03:49:18.448Z,6.10
2018-09-04T03:51:45.929Z,6.10
2018-09-04T03:54:13.334Z,6.10
2018-09-04T03:56:40.750Z,6.10
2018-09-04T03:59:08.182Z,6.10
2018-09-04T04:01:35.636Z,6.10
2018-09-04T04:04:03.134Z,6.10
2018-09-04T04:06:30.521Z,6.10
2018-09-04T04:08:57.900Z,6.30
2018-09-04T04:11:25.320Z,6.40
2018-09-04T04:13:52.751Z,6.60
2018-09-04T04:16:20.128Z,6.70
2018-09-04T04:18:47.509Z,6.60
2018-09-04T04:21:14.928Z,6.40
2018-09-04T04:23:42.319Z,6.30
2018-09-04T04:26:09.804Z,6.30
2018-09-04T04:28:37.333Z,6.30
2018-09-04T04:31:04.757Z,6.20
2018-09-04T04:33:32.152Z,6.20
2018-09-04T04:35:59.575Z,6.20
2018-09-04T04:38:27.088Z,6.20
2018-09-04T04:40:54.494Z,6.30
2018-09-04T04:43:21.884Z,6.30
2018-09-04T04:45:49.327Z,6.60
2018-09-04T04:48:16.814Z,6.80
2018-09-04T04:50:44.185Z,6.80
2018-09-04T04:53:11.701Z,6.70
2018-09-04T04:55:39.093Z,6.70
2018-09-04T04:58:06.505Z,6.70
2018-09-04T05:00:33.994Z,6.70
2018-09-04T05:03:01.397Z,6.80
2018-09-04T05:05:28.861Z,7.00
2018-09-04T05:07:56.318Z,7.00
2018-09-04T05:10:23.753Z,7.10
2018-09-04T05:12:51.200Z,7.30
2018-09-04T05:15:18.596Z,7.50
2018-09-04T05:17:46.013Z,7.70
2018-09-04T05:20:17.441Z,8.00
2018-09-04T05:22:44.899Z,8.10
2018-09-04T05:25:12.336Z,8.10
2018-09-04T05:27:39.766Z,8.10
2018-09-04T05:30:07.210Z,8.20
2018-09-04T05:32:44.479Z,8.20
2018-09-04T05:35:13.318Z,8.30
2018-09-04T05:37:41.784Z,8.50
2018-09-04T05:40:09.197Z,8.80
2018-09-04T05:43:12.406Z,9.00
2018-09-04T05:45:40.201Z,9.20
2018-09-04T05:48:09.616Z,9.30
2018-09-04T05:50:37.121Z,9.40
2018-09-04T05:53:04.581Z,9.50
2018-09-04T05:55:31.964Z,9.60
2018-09-04T05:57:59.631Z,9.80
2018-09-04T06:00:29.304Z,10.10
2018-09-04T06:02:56.729Z,10.40
2018-09-04T06:05:24.167Z,10.60
2018-09-04T06:07:51.711Z,11.00
2018-09-04T06:10:19.115Z,11.50
2018-09-04T06:12:46.739Z,11.90
2018-09-04T06:15:14.141Z,12.20
2018-09-04T06:17:41.525Z,12.30
2018-09-04T06:20:09.021Z,12.50
2018-09-04T06:22:36.393Z,12.50
2018-09-04T06:25:04.122Z,12.40
2018-09-04T06:27:31.571Z,12.40
2018-09-04T06:29:58.966Z,12.30
2018-09-04T06:32:26.402Z,12.20
2018-09-04T06:34:53.809Z,12.30
2018-09-04T06:37:21.450Z,12.30
2018-09-04T06:39:48.833Z,12.10
2018-09-04T06:42:16.227Z,11.90
2018-09-04T06:44:43.733Z,12.20
2018-09-04T06:47:11.215Z,12.50
2018-09-04T06:49:38.786Z,13.00
2018-09-04T06:52:06.660Z,13.20
2018-09-04T06:54:34.114Z,13.40
2018-09-04T06:57:01.528Z,13.40
2018-09-04T06:59:28.981Z,13.50
2018-09-04T07:01:56.373Z,13.40
2018-09-04T07:04:23.769Z,13.60
2018-09-04T07:06:51.169Z,13.80
2018-09-04T07:09:18.588Z,13.90
2018-09-04T07:11:46.025Z,14.00
2018-09-04T07:14:13.433Z,14.20
2018-09-04T07:16:41.258Z,14.30
2018-09-04T07:19:09.073Z,14.50
2018-09-04T07:21:36.490Z,14.60
2018-09-04T07:24:03.926Z,14.70
2018-09-04T07:26:31.407Z,14.80
2018-09-04T07:28:58.788Z,15.00
2018-09-04T07:31:26.234Z,15.10
2018-09-04T07:33:53.622Z,15.00
2018-09-04T07:36:21.116Z,14.90
2018-09-04T07:38:48.538Z,14.90
2018-09-04T07:41:15.912Z,15.00
2018-09-04T07:43:43.346Z,15.10
2018-09-04T07:46:10.770Z,15.10
2018-09-04T07:48:39.040Z,15.30
2018-09-04T07:51:06.431Z,15.50
2018-09-04T07:53:33.984Z,15.90
2018-09-04T07:56:01.365Z,15.90
2018-09-04T07:58:28.761Z,16.00
2018-09-04T08:00:56.186Z,16.20
2018-09-04T08:03:23.585Z,16.40
2018-09-04T08:05:51.054Z,16.50
2018-09-04T08:08:18.454Z,16.60
2018-09-04T08:10:45.899Z,16.80
2018-09-04T08:13:13.353Z,16.90
2018-09-04T08:15:40.770Z,16.90
2018-09-04T08:18:08.172Z,17.30
2018-09-04T08:20:35.629Z,17.50
2018-09-04T08:23:02.993Z,17.60
2018-09-04T08:25:30.401Z,17.50
2018-09-04T08:27:57.860Z,17.50
2018-09-04T08:30:25.249Z,17.40
2018-09-04T08:32:52.709Z,17.20
2018-09-04T08:35:20.106Z,17.30
2018-09-04T08:37:47.590Z,17.40
2018-09-04T08:40:15.046Z,17.40
2018-09-04T08:42:42.424Z,17.20
2018-09-04T08:45:09.819Z,17.10
2018-09-04T08:47:37.322Z,17.10
2018-09-04T08:50:04.765Z,17.30
2018-09-04T08:52:32.169Z,17.60
2018-09-04T08:54:59.646Z,17.80
2018-09-04T08:57:27.073Z,17.90
2018-09-04T08:59:54.515Z,18.00
2018-09-04T09:02:21.973Z,17.90
2018-09-04T09:04:50.327Z,17.90
2018-09-04T09:07:17.731Z,17.90
2018-09-04T09:09:45.122Z,18.00
2018-09-04T09:12:12.536Z,18.10
2018-09-04T09:14:39.943Z,18.00
2018-09-04T09:17:08.460Z,17.90
2018-09-04T09:19:35.877Z,18.10
2018-09-04T09:22:03.305Z,18.10
2018-09-04T09:24:30.720Z,18.30
2018-09-04T09:26:58.200Z,18.50
2018-09-04T09:29:25.634Z,18.60
2018-09-04T09:31:53.077Z,18.60
2018-09-04T09:34:20.487Z,18.70
2018-09-04T09:36:48.094Z,18.60
2018-09-04T09:39:15.355Z,18.50
2018-09-04T09:41:42.810Z,18.50
2018-09-04T09:44:10.189Z,18.60
2018-09-04T09:46:37.589Z,18.60
2018-09-04T09:49:05.253Z,18.60
2018-09-04T09:51:32.636Z,18.60
2018-09-04T09:54:00.043Z,18.60
2018-09-04T09:56:27.615Z,18.60
2018-09-04T09:58:54.912Z,18.60
2018-09-04T10:01:28.178Z,18.60
2018-09-04T10:03:57.535Z,18.70
2018-09-04T10:06:24.885Z,18.80
2018-09-04T10:08:52.292Z,18.70
2018-09-04T10:11:19.745Z,18.80
2018-09-04T10:13:47.554Z,18.90
2018-09-04T10:16:15.039Z,19.10
2018-09-04T10:18:42.434Z,19.20
2018-09-04T10:21:09.930Z,19.20
2018-09-04T10:23:37.338Z,19.10
2018-09-04T10:26:04.913Z,19.10
2018-09-04T10:28:32.334Z,19.10
2018-09-04T10:30:59.727Z,19.10
2018-09-04T10:33:27.153Z,19.30
2018-09-04T10:35:54.570Z,19.40
2018-09-04T10:38:25.883Z,19.40
2018-09-04T10:40:59.325Z,19.50
2018-09-04T10:43:28.182Z,19.60
2018-09-04T10:46:01.967Z,19.60
2018-09-04T10:48:29.905Z,19.80
2018-09-04T10:50:57.548Z,19.90
2018-09-04T10:53:24.985Z,19.90
2018-09-04T10:55:52.485Z,19.90
2018-09-04T10:58:19.849Z,20.00
2018-09-04T11:00:47.241Z,20.00
2018-09-04T11:03:14.639Z,20.10
2018-09-04T11:05:42.098Z,19.90
2018-09-04T11:08:09.518Z,19.90
2018-09-04T11:10:36.954Z,19.90
2018-09-04T11:13:04.961Z,20.10
2018-09-04T11:15:32.405Z,20.10
2018-09-04T11:17:59.821Z,20.20
2018-09-04T11:20:27.243Z,20.20
2018-09-04T11:22:54.668Z,20.20
2018-09-04T11:25:22.074Z,20.30
2018-09-04T11:27:49.456Z,20.20
2018-09-04T11:30:16.898Z,20.20
2018-09-04T11:32:44.308Z,20.30
2018-09-04T11:35:11.867Z,20.20
2018-09-04T11:37:39.506Z,20.10
2018-09-04T11:40:07.934Z,20.00
2018-09-04T11:42:35.328Z,19.80
2018-09-04T11:45:02.828Z,19.70
2018-09-04T11:47:30.332Z,19.50
2018-09-04T11:49:57.727Z,19.60
2018-09-04T11:52:25.215Z,19.60
2018-09-04T11:54:52.583Z,19.70
2018-09-04T11:57:20.005Z,19.70
2018-09-04T11:59:47.507Z,19.70
2018-09-04T12:02:20.538Z,19.70
2018-09-04T12:04:47.973Z,19.70
2018-09-04T12:07:15.550Z,19.80
2018-09-04T12:09:42.971Z,19.80
2018-09-04T12:12:14.968Z,19.80
2018-09-04T12:14:42.405Z,19.80
2018-09-04T12:17:09.806Z,19.80
2018-09-04T12:20:54.343Z,19.80
2018-09-04T12:23:21.665Z,19.80
2018-09-04T12:25:50.617Z,19.70
2018-09-04T12:28:18.069Z,19.80
2018-09-04T12:30:45.654Z,19.80
2018-09-04T12:33:13.140Z,19.80
2018-09-04T12:35:40.632Z,19.80
2018-09-04T12:38:09.526Z,19.80
2018-09-04T12:40:36.946Z,19.70
2018-09-04T12:43:04.444Z,19.90
2018-09-04T12:45:37.621Z,19.90
2018-09-04T12:48:05.119Z,19.90
2018-09-04T12:50:32.930Z,19.70
2018-09-04T12:53:00.337Z,19.70
2018-09-04T12:55:27.870Z,19.90
2018-09-04T12:57:55.269Z,19.90
2018-09-04T13:00:22.700Z,19.80
2018-09-04T13:02:50.077Z,19.90
2018-09-04T13:05:18.041Z,20.00
2018-09-04T13:07:45.654Z,20.10
2018-09-04T13:10:13.139Z,20.10
2018-09-04T13:12:40.547Z,20.10
2018-09-04T13:15:08.881Z,20.30
2018-09-04T13:17:36.276Z,20.20
2018-09-04T13:20:03.751Z,20.10
2018-09-04T13:22:31.221Z,20.10
2018-09-04T13:24:58.596Z,20.00
2018-09-04T13:27:26.013Z,20.10
2018-09-04T13:29:53.409Z,20.30
2018-09-04T13:32:20.842Z,20.50
2018-09-04T13:34:48.233Z,20.70
2018-09-04T13:37:15.656Z,20.90
2018-09-04T13:39:43.067Z,21.00
2018-09-04T13:42:10.485Z,20.70
2018-09-04T13:44:37.858Z,20.70
2018-09-04T13:47:05.303Z,20.70
2018-09-04T13:49:33.028Z,20.50
2018-09-04T13:52:00.541Z,20.90
2018-09-04T13:54:28.014Z,20.80
2018-09-04T13:56:55.477Z,20.60
2018-09-04T13:59:22.865Z,20.80
2018-09-04T14:01:50.285Z,20.70
2018-09-04T14:04:17.751Z,20.70
2018-09-04T14:06:45.167Z,20.60
2018-09-04T14:09:12.604Z,20.60
2018-09-04T14:11:40.073Z,20.50
2018-09-04T14:14:07.530Z,20.50
2018-09-04T14:16:43.146Z,20.60
2018-09-04T14:19:02.399Z,20.80
2018-09-04T14:21:29.785Z,20.90
2018-09-04T14:23:57.229Z,21.00
2018-09-04T14:26:24.608Z,20.90
2018-09-04T14:29:06.417Z,20.80
2018-09-04T14:31:19.509Z,20.70
2018-09-04T14:33:46.899Z,20.70
2018-09-04T14:36:14.313Z,20.90
2018-09-04T14:38:41.728Z,20.90
2018-09-04T14:41:09.173Z,20.90
2018-09-04T14:43:36.596Z,21.00
2018-09-04T14:46:04.357Z,21.00
2018-09-04T14:48:31.766Z,21.00
2018-09-04T14:50:59.216Z,20.90
2018-09-04T14:53:26.602Z,21.10
2018-09-04T14:55:54.053Z,21.20
2018-09-04T14:58:21.461Z,21.10
2018-09-04T15:00:48.877Z,21.10
2018-09-04T15:03:16.349Z,21.10
2018-09-04T15:05:44.037Z,21.20
2018-09-04T15:08:11.580Z,21.30
2018-09-04T15:10:39.140Z,21.10
2018-09-04T15:13:06.512Z,20.90
2018-09-04T15:15:33.962Z,20.70
2018-09-04T15:18:01.480Z,20.60
2018-09-04T15:20:29.021Z,20.40
2018-09-04T15:22:56.488Z,20.30
2018-09-04T15:25:24.169Z,20.20
2018-09-04T15:27:51.542Z,20.10
2018-09-04T15:30:18.939Z,20.00
2018-09-04T15:32:46.710Z,20.10
2018-09-04T15:35:14.151Z,20.20
2018-09-04T15:37:41.589Z,20.20
2018-09-04T15:40:09.098Z,20.40
2018-09-04T15:42:36.527Z,20.30
2018-09-04T15:45:04.170Z,20.30
2018-09-04T15:47:31.545Z,20.30
2018-09-04T15:49:58.977Z,20.20
2018-09-04T15:52:26.477Z,20.30
2018-09-04T15:54:53.884Z,20.30
2018-09-04T15:57:21.297Z,20.40
2018-09-04T15:59:48.737Z,20.50
2018-09-04T16:02:16.149Z,20.40
2018-09-04T16:04:43.609Z,20.30
2018-09-04T16:07:11.033Z,20.30
2018-09-04T16:09:38.597Z,20.30
2018-09-04T16:12:05.993Z,20.40
2018-09-04T16:14:33.377Z,20.20
2018-09-04T16:17:00.830Z,20.10
2018-09-04T16:19:28.217Z,19.90
2018-09-04T16:21:55.665Z,19.90
2018-09-04T16:27:40.526Z,19.90
2018-09-04T16:30:07.933Z,19.70
2018-09-04T16:32:35.344Z,19.80
2018-09-04T16:35:02.864Z,19.70
2018-09-04T16:37:30.352Z,19.60
2018-09-04T16:39:57.897Z,19.70
2018-09-04T16:42:25.296Z,19.60
2018-09-04T16:44:52.726Z,19.50
2018-09-04T16:47:20.209Z,19.30
2018-09-04T16:49:47.618Z,19.20
2018-09-04T16:52:15.084Z,19.00
2018-09-04T16:54:42.552Z,19.00
2018-09-04T16:57:10.221Z,19.00
2018-09-04T16:59:37.716Z,19.00
2018-09-04T17:02:05.323Z,18.90
2018-09-04T17:04:32.780Z,18.80
2018-09-04T17:07:00.278Z,18.60
2018-09-04T17:09:27.664Z,18.40
2018-09-04T17:11:55.142Z,18.30
2018-09-04T17:14:22.549Z,18.10
2018-09-04T17:16:49.973Z,18.00
2018-09-04T17:19:17.421Z,18.00
2018-09-04T17:21:44.875Z,17.90
2018-09-04T17:24:12.265Z,17.90
2018-09-04T17:26:39.676Z,17.80
2018-09-04T17:29:07.225Z,17.70
2018-09-04T17:31:34.908Z,17.60
2018-09-04T17:34:02.443Z,17.50
2018-09-04T17:36:30.096Z,17.40
2018-09-04T17:38:57.806Z,17.20
2018-09-04T17:41:25.275Z,17.00
2018-09-04T17:43:53.054Z,16.90
2018-09-04T17:46:20.608Z,16.70
2018-09-04T17:48:48.103Z,16.60
2018-09-04T17:51:15.667Z,16.30
2018-09-04T17:53:43.926Z,15.90
2018-09-04T17:56:11.437Z,15.70
2018-09-04T17:58:38.850Z,15.50
2018-09-04T18:01:06.283Z,15.40
2018-09-04T18:03:33.757Z,15.30
2018-09-04T18:06:01.160Z,15.30
2018-09-04T18:08:28.566Z,15.20
2018-09-04T18:10:55.981Z,15.10
2018-09-04T18:13:23.480Z,15.00
2018-09-04T18:15:50.998Z,14.70
2018-09-04T18:18:18.393Z,14.50
2018-09-04T18:20:45.936Z,14.30
2018-09-04T18:23:13.369Z,14.20
2018-09-04T18:25:40.845Z,14.10
2018-09-04T18:28:08.234Z,14.10
2018-09-04T18:30:36.467Z,14.00
2018-09-04T18:33:03.920Z,13.90
2018-09-04T18:35:31.440Z,13.80
2018-09-04T18:37:58.845Z,13.70
2018-09-04T18:40:26.339Z,13.60
2018-09-04T18:42:53.745Z,13.50
2018-09-04T18:45:32.801Z,13.40
2018-09-04T18:48:00.242Z,13.30
2018-09-04T18:50:27.612Z,13.20
2018-09-04T18:52:55.097Z,13.20
2018-09-04T18:55:22.489Z,13.20
2018-09-04T18:57:49.898Z,13.20
2018-09-04T19:00:17.797Z,13.10
2018-09-04T19:02:45.185Z,13.00
2018-09-04T19:05:12.674Z,12.90
2018-09-04T19:07:40.088Z,12.80
2018-09-04T19:10:07.546Z,12.70
2018-09-04T19:12:35.028Z,12.70
2018-09-04T19:15:02.439Z,12.60
2018-09-04T19:17:30.034Z,12.50
2018-09-04T19:19:57.494Z,12.50
2018-09-04T19:22:24.901Z,12.40
2018-09-04T19:24:52.514Z,12.40
2018-09-04T19:27:19.957Z,12.30
2018-09-04T19:29:47.365Z,12.20
2018-09-04T19:32:14.747Z,12.20
2018-09-04T19:34:42.197Z,12.10
2018-09-04T19:37:09.633Z,12.10
2018-09-04T19:39:37.031Z,12.00
2018-09-04T19:42:04.512Z,12.00
2018-09-04T19:44:31.916Z,11.90
2018-09-04T19:46:59.834Z,11.90
2018-09-04T19:49:27.290Z,11.80
2018-09-04T19:51:54.706Z,11.70
2018-09-04T19:54:22.162Z,11.50
2018-09-04T19:56:49.605Z,11.40
2018-09-04T19:59:17.056Z,11.40
2018-09-04T20:01:44.702Z,11.40
2018-09-04T20:04:12.125Z,11.30
2018-09-04T20:06:39.676Z,11.30
2018-09-04T20:09:07.139Z,11.30
2018-09-04T20:11:34.693Z,11.30
2018-09-04T20:14:02.193Z,11.20
2018-09-04T20:16:29.592Z,11.10
2018-09-04T20:18:57.008Z,11.10
2018-09-04T20:21:24.497Z,11.00
2018-09-04T20:23:51.902Z,10.90
2018-09-04T20:26:19.322Z,10.80
2018-09-04T20:28:46.727Z,10.80
2018-09-04T20:31:14.208Z,10.70
2018-09-04T20:33:41.585Z,10.70
2018-09-04T20:36:08.996Z,10.70
2018-09-04T20:38:36.669Z,10.70
2018-09-04T20:41:04.291Z,10.70
2018-09-04T20:43:31.729Z,10.60
2018-09-04T20:45:59.156Z,10.60
2018-09-04T20:48:26.597Z,10.50
2018-09-04T20:50:54.053Z,10.60
2018-09-04T20:53:21.478Z,10.50
2018-09-04T20:55:49.087Z,10.60
2018-09-04T20:58:28.000Z,10.50
2018-09-04T21:01:07.147Z,10.40
2018-09-04T21:03:46.060Z,10.30
2018-09-04T21:06:24.876Z,10.30
2018-09-04T21:09:01.981Z,10.20
2018-09-04T21:11:29.490Z,10.20
2018-09-04T21:13:56.913Z,10.20
2018-09-04T21:16:24.337Z,10.20
2018-09-04T21:18:51.765Z,10.20
2018-09-04T21:21:19.517Z,10.20
2018-09-04T21:23:47.013Z,10.10
2018-09-04T21:26:14.417Z,10.10
2018-09-04T21:28:41.884Z,10.00
2018-09-04T21:31:09.297Z,10.00
2018-09-04T21:33:36.721Z,9.90
2018-09-04T21:36:04.168Z,9.80
2018-09-04T21:38:31.600Z,9.70
2018-09-04T21:40:59.045Z,9.60
2018-09-04T21:43:26.454Z,9.50
2018-09-04T21:45:53.920Z,9.50
2018-09-04T21:48:21.313Z,9.40
2018-09-04T21:50:48.738Z,9.40
2018-09-04T21:53:16.480Z,9.40
2018-09-04T21:55:43.882Z,9.40
2018-09-04T21:58:11.288Z,9.40
2018-09-04T22:00:38.678Z,9.50
2018-09-04T22:03:08.000Z,9.50
2018-09-04T22:05:35.886Z,9.40
2018-09-04T22:08:04.183Z,9.30
2018-09-04T22:10:31.590Z,9.30
2018-09-04T22:12:59.005Z,9.30
2018-09-04T22:15:26.477Z,9.30
2018-09-04T22:17:53.905Z,9.20
2018-09-04T22:20:21.358Z,9.00
2018-09-04T22:22:48.812Z,8.90
2018-09-04T22:25:16.336Z,8.90
2018-09-04T22:27:43.752Z,8.90
2018-09-04T22:30:11.371Z,8.90
2018-09-04T22:32:39.112Z,8.90
2018-09-04T22:35:06.520Z,8.90
2018-09-04T22:37:34.200Z,8.90
2018-09-04T22:40:01.614Z,9.00
2018-09-04T22:42:29.017Z,9.10
2018-09-04T22:44:56.445Z,9.40
2018-09-04T22:47:23.866Z,9.50
2018-09-04T22:49:57.026Z,9.50
2018-09-04T22:52:30.573Z,9.40
2018-09-04T22:55:01.358Z,9.30
2018-09-04T22:57:29.009Z,9.10
2018-09-04T22:59:56.408Z,9.00
2018-09-04T23:02:23.808Z,9.00
2018-09-04T23:04:51.459Z,9.00
2018-09-04T23:07:18.917Z,8.90
2018-09-04T23:09:46.309Z,8.70
2018-09-04T23:12:14.156Z,8.70
2018-09-04T23:14:41.618Z,8.60
2018-09-04T23:17:09.004Z,8.60
2018-09-04T23:19:36.397Z,8.50
2018-09-04T23:22:03.852Z,8.50
2018-09-04T23:24:31.247Z,8.50
2018-09-04T23:26:58.639Z,8.40
2018-09-04T23:29:26.046Z,8.50
2018-09-04T23:31:53.508Z,8.50
2018-09-04T23:34:20.902Z,8.40
2018-09-04T23:36:48.304Z,8.30
2018-09-04T23:39:15.723Z,8.10
2018-09-04T23:41:43.215Z,8.10
2018-09-04T23:44:10.652Z,8.10
2018-09-04T23:46:38.076Z,8.10
2018-09-04T23:49:06.079Z,8.00
2018-09-04T23:51:33.505Z,8.00
2018-09-04T23:54:00.912Z,7.90
2018-09-04T23:56:28.342Z,7.90
2018-09-04T23:58:55.797Z,7.90
